Airfield :
LOGIN :

Register | Disclaimer

   EN    FR    IT 

 










Legend :    VFR   Marginal VFR   IFR   Intensive IFR   Very Intensive IFR
Visi :
Ceiling :
>= 8 km
>= 3000ft
5 to 8 km
1000 to 3000 ft
1500m to 5 km
500 to 1000 ft
800 to 1500m
200 to 500 ft
< 800m
< 200 ft
Symbols :   Thunderstorms  Fog  Heavy snow  Heavy precipitations  Wind > 20 kt
SIGMETs :     Misc.  Thunderstorms  Icing  Turbulence  Mountain Waves  Volcanic Ashes







- Airport Elevation : 1213 ft
- IATA code : SCQ


LEST - Santiago de Compostela

CURRENT METAR :
  • 181730Z VRB02KT 2000 BCFG SCT001 BKN002 08/08 Q1025 TEMPO 0800 BCFG

EXPIRED METARs :
  • 181700Z 16004KT 1500 BCFG SCT001 BKN002 08/08 Q1024 TEMPO 0800 BCFG
  • 181630Z 15004G16KT 110V180 1500 BCFG SCT001 BKN002 08/08 Q1024 TEMPO 0800 BCFG
  • 181600Z 15003KT 110V190 0900 R17/P2000 R35/1900N FG SCT001 BKN002 08/08 Q1024 NOSIG
  • 181530Z 16004KT 1000 R17/P2000 R35/1500N BCFG SCT001 BKN002 08/08 Q1024 NOSIG
  • 181500Z 15004KT 1500 BCFG -DZ SCT001 BKN002 OVC007 08/07 Q1024 NOSIG

TAF TAF LEST
Valid from the 18 at 18:00 until the 19 at 18:00 UTC


181700Z 1818/1918 23007KT 6000 SCT005 BKN010 TX11/1914Z TN02/1907Z
TEMPO 1818/1910 3000 BR BKN004
TEMPO 1818/1909 0800 RADZ BCFG BKN002
PROB40
TEMPO 1900/1907 0350 FG VV001
BECMG 1903/1906 36010KT
BECMG 1910/1912 SCT010 BKN020
No reported NOTAMs for that airfield.



MET'MAP, your aeronautical weather chart ! - Copyright ORBIFLY December 2007 - Disclaimer

ORBIFLY MET'MAP TEAM :

Programming & Development : Alexandra Zaïnal
Concept & Development : Baudouin d'Aumeries
Co-Development & Prog : Marc-Olivier Méhu
Technical & hardware support : Manuel Goepfert

Contact : metmap@orbifly.com




SOURCES & CREDITS :

   NOAA